<?xml version="1.0" encoding="UTF-8" standalone="no" ?>
<gpx xmlns="http://www.topografix.com/GPX/1/1" xmlns:xsi="http://www.w3.org/2001/XMLSchema-instance" xsi:schemaLocation="http://www.topografix.com/GPX/1/1 http://www.topografix.com/GPX/1/1/gpx.xsd" version="1.1" creator="VisuGPX - https://www.visugpx.com">
  <metadata>
    <name>DH Plateau des Petites Roches</name>
  </metadata>
  <wpt lat="45.31652" lon="5.89215">
    <ele>909.4</ele>
  </wpt>
  <wpt lat="45.31652" lon="5.89215">
    <ele>909.4</ele>
  </wpt>
  <trk>
    <name><![CDATA[14438005-Sentier Enduro 2]]></name>
    <extensions>
      <line xmlns="http://www.topografix.com/GPX/gpx_style/0/2">
        <color>00FFFF</color>
        <width>4</width>
      </line>
    </extensions>
    <trkseg>
      <trkpt lat="45.31118" lon="5.87718">
        <ele>1160</ele>
        <time>2022-03-21T08:08:15Z</time>
      </trkpt>
      <trkpt lat="45.31226" lon="5.87902">
        <ele>1141</ele>
        <time>2022-03-21T08:08:54Z</time>
      </trkpt>
      <trkpt lat="45.31204" lon="5.87968">
        <ele>1124</ele>
        <time>2022-03-21T08:09:06Z</time>
      </trkpt>
      <trkpt lat="45.3114" lon="5.87938">
        <ele>1119</ele>
        <time>2022-03-21T08:09:22Z</time>
      </trkpt>
      <trkpt lat="45.31064" lon="5.87922">
        <ele>1111</ele>
        <time>2022-03-21T08:09:40Z</time>
      </trkpt>
      <trkpt lat="45.31" lon="5.87902">
        <ele>1106</ele>
        <time>2022-03-21T08:09:55Z</time>
      </trkpt>
      <trkpt lat="45.30946" lon="5.87881">
        <ele>1103</ele>
        <time>2022-03-21T08:10:08Z</time>
      </trkpt>
      <trkpt lat="45.3091" lon="5.87866">
        <ele>1100</ele>
        <time>2022-03-21T08:10:17Z</time>
      </trkpt>
      <trkpt lat="45.30867" lon="5.8781">
        <ele>1100</ele>
        <time>2022-03-21T08:10:31Z</time>
      </trkpt>
      <trkpt lat="45.30885" lon="5.87917">
        <ele>1088</ele>
        <time>2022-03-21T08:10:49Z</time>
      </trkpt>
      <trkpt lat="45.30914" lon="5.87994">
        <ele>1077</ele>
        <time>2022-03-21T08:11:03Z</time>
      </trkpt>
      <trkpt lat="45.30942" lon="5.88091">
        <ele>1049</ele>
        <time>2022-03-21T08:11:20Z</time>
      </trkpt>
      <trkpt lat="45.30942" lon="5.88137">
        <ele>1037</ele>
        <time>2022-03-21T08:11:28Z</time>
      </trkpt>
      <trkpt lat="45.30903" lon="5.88121">
        <ele>1030</ele>
        <time>2022-03-21T08:11:37Z</time>
      </trkpt>
      <trkpt lat="45.30849" lon="5.88086">
        <ele>1024</ele>
        <time>2022-03-21T08:11:51Z</time>
      </trkpt>
      <trkpt lat="45.3081" lon="5.88101">
        <ele>1012</ele>
        <time>2022-03-21T08:12:01Z</time>
      </trkpt>
      <trkpt lat="45.3077" lon="5.88106">
        <ele>1003</ele>
        <time>2022-03-21T08:12:10Z</time>
      </trkpt>
      <trkpt lat="45.3082" lon="5.88145">
        <ele>1005</ele>
        <time>2022-03-21T08:12:23Z</time>
      </trkpt>
      <trkpt lat="45.30811" lon="5.88167">
        <ele>999</ele>
        <time>2022-03-21T08:12:28Z</time>
      </trkpt>
      <trkpt lat="45.30804" lon="5.88182">
        <ele>995</ele>
        <time>2022-03-21T08:12:31Z</time>
      </trkpt>
      <trkpt lat="45.30795" lon="5.88202">
        <ele>991</ele>
        <time>2022-03-21T08:12:34Z</time>
      </trkpt>
      <trkpt lat="45.30784" lon="5.88217">
        <ele>987</ele>
        <time>2022-03-21T08:12:38Z</time>
      </trkpt>
    </trkseg>
  </trk>
</gpx>